Time;durP1;ratioP1;P1;durP2;ratioP2;P2;SDS_P1;SDS_P2;PMS_P1;PMS_P2;Temp;Humidity;BMP_temperature;BMP_pressure;BME280_temperature;BME280_humidity;BME280_pressure;Samples;Min_cycle;Max_cycle;Signal;HPM_P1;HPM_P2
2021/09/22 00:01:05;;;;;;;;;;;21.30;61.10;;;;;;484712;246;1295;-46
2021/09/22 00:03:06;;;;;;;;;;;21.40;61.10;;;;;;490777;243;2114;-46
2021/09/22 00:05:08;;;;;;;;;;;21.40;61.10;;;;;;485630;243;1078;-46
2021/09/22 00:07:09;;;;;;;;;;;21.40;61.00;;;;;;484781;246;1136;-46
2021/09/22 00:09:10;;;;;;;;;;;21.40;61.10;;;;;;490656;243;1072;-46
2021/09/22 00:11:12;;;;;;;;;;;21.40;61.00;;;;;;485115;242;1214;-45
2021/09/22 00:13:13;;;;;;;;;;;21.40;61.00;;;;;;485130;246;1021;-46
2021/09/22 00:15:14;;;;;;;;;;;21.40;61.00;;;;;;490505;243;2847;-46
2021/09/22 00:17:16;;;;;;;;;;;21.30;61.10;;;;;;485246;243;1229;-46
2021/09/22 00:19:17;;;;;;;;;;;21.40;61.10;;;;;;484698;246;1059;-46
2021/09/22 00:21:20;;;;;;;;;;;21.30;61.10;;;;;;490727;243;1160;-46
2021/09/22 00:23:20;;;;;;;;;;;21.40;61.10;;;;;;485000;246;2192;-46
2021/09/22 00:25:21;;;;;;;;;;;21.40;61.10;;;;;;484686;246;1048;-46
2021/09/22 00:27:22;;;;;;;;;;;21.40;61.10;;;;;;490519;243;1245;-46
2021/09/22 00:29:24;;;;;;;;;;;21.40;61.10;;;;;;485442;243;1041;-46
2021/09/22 00:31:25;;;;;;;;;;;21.40;61.00;;;;;;484648;246;1355;-46
2021/09/22 00:33:27;;;;;;;;;;;21.40;60.90;;;;;;490667;243;1031;-46
2021/09/22 00:35:28;;;;;;;;;;;21.30;61.00;;;;;;485446;243;1227;-46
2021/09/22 00:37:29;;;;;;;;;;;21.30;61.10;;;;;;484682;246;1291;-46
2021/09/22 00:39:31;;;;;;;;;;;21.30;61.10;;;;;;490580;243;1188;-46
2021/09/22 00:41:32;;;;;;;;;;;21.30;61.10;;;;;;485086;243;1209;-46
2021/09/22 00:43:33;;;;;;;;;;;21.30;61.20;;;;;;485121;246;2183;-46
2021/09/22 00:45:34;;;;;;;;;;;21.20;61.20;;;;;;490517;243;1100;-46
2021/09/22 00:47:36;;;;;;;;;;;21.30;61.20;;;;;;485261;243;1243;-46
2021/09/22 00:49:37;;;;;;;;;;;21.30;61.10;;;;;;484665;246;1073;-46
2021/09/22 00:51:38;;;;;;;;;;;21.40;61.10;;;;;;490763;243;1126;-46
2021/09/22 00:53:40;;;;;;;;;;;21.40;61.00;;;;;;485084;243;1219;-45
2021/09/22 00:55:41;;;;;;;;;;;21.30;61.00;;;;;;484641;246;1213;-46
2021/09/22 00:57:42;;;;;;;;;;;21.30;61.00;;;;;;490507;243;1318;-45
2021/09/22 00:59:44;;;;;;;;;;;21.40;61.00;;;;;;485543;243;1232;-45
2021/09/22 01:01:49;;;;;;;;;;;21.40;60.90;;;;;;484770;246;1159;-46
2021/09/22 01:03:46;;;;;;;;;;;21.30;61.00;;;;;;490601;242;2209;-46
2021/09/22 01:05:48;;;;;;;;;;;21.30;61.00;;;;;;485159;243;1249;-46
2021/09/22 01:07:49;;;;;;;;;;;21.30;61.00;;;;;;484906;246;1237;-46
2021/09/22 01:09:50;;;;;;;;;;;21.40;60.90;;;;;;490800;243;1268;-46
2021/09/22 01:11:52;;;;;;;;;;;21.40;61.00;;;;;;485003;243;1114;-46
2021/09/22 01:13:53;;;;;;;;;;;21.40;61.00;;;;;;484592;246;1128;-46
2021/09/22 01:15:54;;;;;;;;;;;21.40;60.90;;;;;;490665;243;1571;-46
2021/09/22 01:17:56;;;;;;;;;;;21.40;61.00;;;;;;485127;243;1197;-46
2021/09/22 01:19:57;;;;;;;;;;;21.40;60.90;;;;;;484966;246;1059;-46
2021/09/22 01:21:58;;;;;;;;;;;21.40;61.00;;;;;;490487;243;1122;-46
2021/09/22 01:24:00;;;;;;;;;;;21.30;61.00;;;;;;485420;243;2194;-46
2021/09/22 01:26:01;;;;;;;;;;;21.40;61.00;;;;;;484713;239;1234;-46
2021/09/22 01:28:02;;;;;;;;;;;21.40;61.00;;;;;;490619;243;1217;-45
2021/09/22 01:30:03;;;;;;;;;;;21.40;60.90;;;;;;485419;243;1357;-46
2021/09/22 01:32:05;;;;;;;;;;;21.30;60.90;;;;;;484508;246;1167;-46
2021/09/22 01:34:06;;;;;;;;;;;21.40;61.00;;;;;;490591;243;1119;-46
2021/09/22 01:36:07;;;;;;;;;;;21.40;60.90;;;;;;485198;242;1123;-46
2021/09/22 01:38:09;;;;;;;;;;;21.40;60.90;;;;;;484689;246;1069;-46
2021/09/22 01:40:10;;;;;;;;;;;21.30;60.90;;;;;;491044;243;1079;-46
2021/09/22 01:42:11;;;;;;;;;;;21.30;61.00;;;;;;485340;243;1248;-46
2021/09/22 01:44:13;;;;;;;;;;;21.30;61.00;;;;;;484728;246;2147;-46
2021/09/22 01:46:14;;;;;;;;;;;21.40;61.00;;;;;;490532;243;1235;-46
2021/09/22 01:48:15;;;;;;;;;;;21.40;60.90;;;;;;485125;243;1104;-46
2021/09/22 01:50:17;;;;;;;;;;;21.30;60.90;;;;;;484699;246;1084;-45
2021/09/22 01:52:18;;;;;;;;;;;21.40;60.90;;;;;;490420;243;1421;-45
2021/09/22 01:54:19;;;;;;;;;;;21.30;60.90;;;;;;485279;243;1148;-46
2021/09/22 01:56:21;;;;;;;;;;;21.40;61.00;;;;;;484715;246;1222;-46
2021/09/22 01:58:22;;;;;;;;;;;21.40;61.00;;;;;;490742;243;1138;-46
2021/09/22 02:00:23;;;;;;;;;;;21.40;61.00;;;;;;485178;243;1065;-46
2021/09/22 02:02:25;;;;;;;;;;;21.40;61.00;;;;;;484554;246;1478;-46
2021/09/22 02:04:26;;;;;;;;;;;21.40;61.00;;;;;;490639;243;2193;-46
2021/09/22 02:06:27;;;;;;;;;;;21.30;60.90;;;;;;485301;243;1247;-47
2021/09/22 02:08:29;;;;;;;;;;;21.30;61.00;;;;;;484765;246;1210;-47
2021/09/22 02:10:30;;;;;;;;;;;21.40;61.00;;;;;;490540;243;1270;-47
2021/09/22 02:12:31;;;;;;;;;;;21.30;61.00;;;;;;485063;243;1419;-46
2021/09/22 02:14:32;;;;;;;;;;;21.30;60.90;;;;;;484789;246;1225;-46
2021/09/22 02:16:34;;;;;;;;;;;21.30;61.00;;;;;;490464;243;1316;-46
2021/09/22 02:18:35;;;;;;;;;;;21.30;61.00;;;;;;485228;243;1076;-46
2021/09/22 02:20:36;;;;;;;;;;;21.30;61.10;;;;;;484681;246;1140;-43
2021/09/22 02:22:38;;;;;;;;;;;21.30;60.90;;;;;;490514;243;1200;-45
2021/09/22 02:24:42;;;;;;;;;;;21.40;61.00;;;;;;485349;243;2124;-47
2021/09/22 02:26:40;;;;;;;;;;;21.30;60.90;;;;;;484396;246;1460;-47
2021/09/22 02:28:42;;;;;;;;;;;21.30;60.90;;;;;;490697;243;1212;-47
2021/09/22 02:30:43;;;;;;;;;;;21.40;60.90;;;;;;485131;243;1149;-47
2021/09/22 02:32:45;;;;;;;;;;;21.40;60.90;;;;;;484765;246;1254;-47
2021/09/22 02:34:46;;;;;;;;;;;21.40;60.90;;;;;;490544;243;1071;-46
2021/09/22 02:36:47;;;;;;;;;;;21.40;60.90;;;;;;485147;243;1175;-46
2021/09/22 02:38:48;;;;;;;;;;;21.40;60.90;;;;;;484699;246;1098;-47
2021/09/22 02:40:50;;;;;;;;;;;21.40;60.90;;;;;;491045;243;1055;-46
2021/09/22 02:42:51;;;;;;;;;;;21.40;60.90;;;;;;485105;243;1150;-46
2021/09/22 02:44:52;;;;;;;;;;;21.30;60.90;;;;;;484699;246;2188;-46
2021/09/22 02:46:54;;;;;;;;;;;21.40;60.90;;;;;;490701;243;1603;-46
2021/09/22 02:48:55;;;;;;;;;;;21.40;61.00;;;;;;485368;243;1042;-47
2021/09/22 02:50:56;;;;;;;;;;;21.30;60.90;;;;;;484895;246;1181;-47
2021/09/22 02:52:58;;;;;;;;;;;21.30;61.00;;;;;;490872;243;1187;-46
2021/09/22 02:54:59;;;;;;;;;;;21.30;60.90;;;;;;485354;243;1290;-46
2021/09/22 02:57:00;;;;;;;;;;;21.30;61.10;;;;;;484757;240;1432;-46
2021/09/22 02:59:02;;;;;;;;;;;21.30;61.00;;;;;;490790;243;1150;-46
2021/09/22 03:01:03;;;;;;;;;;;21.30;61.00;;;;;;485141;243;1421;-46
2021/09/22 03:03:04;;;;;;;;;;;21.30;60.90;;;;;;484659;246;2196;-45
2021/09/22 03:05:06;;;;;;;;;;;21.30;61.00;;;;;;490961;243;1031;-46
2021/09/22 03:07:07;;;;;;;;;;;21.30;60.90;;;;;;485149;243;1247;-46
2021/09/22 03:09:08;;;;;;;;;;;21.40;60.90;;;;;;484708;246;1075;-46
2021/09/22 03:11:10;;;;;;;;;;;21.40;60.90;;;;;;490542;243;1119;-46
2021/09/22 03:13:11;;;;;;;;;;;21.30;60.90;;;;;;485232;243;1173;-47
2021/09/22 03:15:12;;;;;;;;;;;21.40;61.00;;;;;;484714;246;1643;-47
2021/09/22 03:17:13;;;;;;;;;;;21.40;61.00;;;;;;490515;243;1698;-47
2021/09/22 03:19:15;;;;;;;;;;;21.40;61.00;;;;;;485258;243;1175;-47
2021/09/22 03:21:16;;;;;;;;;;;21.30;60.90;;;;;;484797;246;1210;-46
2021/09/22 03:23:17;;;;;;;;;;;21.30;60.90;;;;;;490886;243;2121;-47
2021/09/22 03:25:19;;;;;;;;;;;21.30;60.90;;;;;;485197;243;1075;-47
2021/09/22 03:27:20;;;;;;;;;;;21.30;61.00;;;;;;484614;246;1404;-46
2021/09/22 03:29:21;;;;;;;;;;;21.30;61.00;;;;;;490577;243;1213;-46
2021/09/22 03:31:23;;;;;;;;;;;21.30;60.90;;;;;;485181;243;1439;-45
2021/09/22 03:33:24;;;;;;;;;;;21.30;60.90;;;;;;484767;246;1201;-45
2021/09/22 03:35:25;;;;;;;;;;;21.30;61.00;;;;;;490738;243;1358;-45
2021/09/22 03:37:27;;;;;;;;;;;21.30;60.90;;;;;;485132;243;1141;-45
2021/09/22 03:39:28;;;;;;;;;;;21.30;60.90;;;;;;484909;246;1097;-47
2021/09/22 03:41:29;;;;;;;;;;;21.30;60.90;;;;;;490470;243;1215;-46
2021/09/22 03:43:31;;;;;;;;;;;21.30;60.90;;;;;;485184;243;2191;-46
2021/09/22 03:45:32;;;;;;;;;;;21.30;60.90;;;;;;484738;246;1264;-46
2021/09/22 03:47:33;;;;;;;;;;;21.30;60.90;;;;;;490592;243;1311;-47
2021/09/22 03:49:35;;;;;;;;;;;21.30;60.90;;;;;;485425;243;1052;-46
2021/09/22 03:51:36;;;;;;;;;;;21.30;61.00;;;;;;484662;246;1529;-47
2021/09/22 03:53:37;;;;;;;;;;;21.30;60.90;;;;;;490735;243;1127;-46
2021/09/22 03:55:39;;;;;;;;;;;21.30;60.90;;;;;;485159;243;1367;-46
2021/09/22 03:57:40;;;;;;;;;;;21.30;60.90;;;;;;484612;246;1339;-47
2021/09/22 03:59:41;;;;;;;;;;;21.30;60.90;;;;;;490643;243;1157;-46
2021/09/22 04:01:43;;;;;;;;;;;21.30;60.90;;;;;;485054;243;1113;-46
2021/09/22 04:03:44;;;;;;;;;;;21.30;60.90;;;;;;484649;246;2125;-46
2021/09/22 04:05:45;;;;;;;;;;;21.30;60.90;;;;;;490502;243;1182;-46
2021/09/22 04:07:47;;;;;;;;;;;21.30;60.90;;;;;;485279;243;1439;-46
2021/09/22 04:09:48;;;;;;;;;;;21.30;60.90;;;;;;484698;246;1195;-46
2021/09/22 04:11:49;;;;;;;;;;;21.30;60.90;;;;;;490624;243;1230;-46
2021/09/22 04:13:51;;;;;;;;;;;21.30;60.90;;;;;;485291;243;1052;-46
2021/09/22 04:15:52;;;;;;;;;;;21.30;60.90;;;;;;484640;246;2182;-46
2021/09/22 04:17:53;;;;;;;;;;;21.30;60.90;;;;;;490582;243;1275;-45
2021/09/22 04:19:54;;;;;;;;;;;21.30;60.90;;;;;;485087;243;1107;-46
2021/09/22 04:21:56;;;;;;;;;;;21.30;60.90;;;;;;484553;246;1534;-46
2021/09/22 04:23:57;;;;;;;;;;;21.40;60.80;;;;;;490626;243;2368;-47
2021/09/22 04:25:59;;;;;;;;;;;21.30;60.80;;;;;;485114;242;1177;-47
2021/09/22 04:28:00;;;;;;;;;;;21.30;60.70;;;;;;484689;246;1175;-46
2021/09/22 04:30:01;;;;;;;;;;;21.30;60.90;;;;;;490554;243;1135;-46
2021/09/22 04:32:03;;;;;;;;;;;21.30;60.90;;;;;;485156;243;1373;-46
2021/09/22 04:34:04;;;;;;;;;;;21.30;60.90;;;;;;484777;246;1221;-45
2021/09/22 04:36:06;;;;;;;;;;;21.30;60.90;;;;;;490598;243;1186;-46
2021/09/22 04:38:07;;;;;;;;;;;21.30;60.90;;;;;;485038;243;1244;-46
2021/09/22 04:40:09;;;;;;;;;;;21.30;60.90;;;;;;484746;246;1187;-46
2021/09/22 04:42:10;;;;;;;;;;;21.20;60.90;;;;;;490538;243;2245;-46
2021/09/22 04:44:11;;;;;;;;;;;21.30;60.90;;;;;;485057;243;2175;-46
2021/09/22 04:46:13;;;;;;;;;;;21.30;60.90;;;;;;484465;246;1175;-47
2021/09/22 04:48:14;;;;;;;;;;;21.30;60.90;;;;;;490298;243;1189;-46
2021/09/22 04:50:15;;;;;;;;;;;21.30;60.90;;;;;;484947;243;1070;-47
2021/09/22 04:52:17;;;;;;;;;;;21.30;60.80;;;;;;484388;246;1499;-46
2021/09/22 04:54:18;;;;;;;;;;;21.30;60.70;;;;;;490316;243;1071;-46
2021/09/22 04:56:19;;;;;;;;;;;21.30;60.80;;;;;;484968;243;1479;-47
2021/09/22 04:58:21;;;;;;;;;;;21.30;60.80;;;;;;484673;246;1143;-46
2021/09/22 05:00:22;;;;;;;;;;;21.30;60.80;;;;;;490432;243;1117;-46
2021/09/22 05:02:23;;;;;;;;;;;21.40;60.80;;;;;;484831;243;1150;-45
2021/09/22 05:04:26;;;;;;;;;;;21.40;60.60;;;;;;484400;246;2176;-46
2021/09/22 05:06:28;;;;;;;;;;;21.50;60.30;;;;;;490218;243;1364;-46
2021/09/22 05:08:29;;;;;;;;;;;21.70;59.90;;;;;;485026;243;1221;-46
2021/09/22 05:10:30;;;;;;;;;;;21.80;59.40;;;;;;484652;246;1030;-46
2021/09/22 05:12:32;;;;;;;;;;;21.90;59.10;;;;;;490339;243;1176;-46
2021/09/22 05:14:33;;;;;;;;;;;22.00;58.70;;;;;;484916;243;1207;-46
2021/09/22 05:16:34;;;;;;;;;;;22.10;58.50;;;;;;484411;246;1315;-46
2021/09/22 05:18:36;;;;;;;;;;;22.10;58.30;;;;;;490401;243;1229;-46
2021/09/22 05:20:37;;;;;;;;;;;22.20;58.10;;;;;;484832;243;1053;-46
2021/09/22 05:22:38;;;;;;;;;;;22.30;58.00;;;;;;484479;246;1259;-46
2021/09/22 05:24:40;;;;;;;;;;;22.30;57.80;;;;;;490312;243;2118;-46
2021/09/22 05:26:41;;;;;;;;;;;22.40;57.80;;;;;;484888;243;1226;-46
2021/09/22 05:28:42;;;;;;;;;;;22.40;57.70;;;;;;484488;246;1398;-46
2021/09/22 05:30:44;;;;;;;;;;;22.40;57.50;;;;;;490320;243;1186;-46
2021/09/22 05:32:45;;;;;;;;;;;22.50;57.40;;;;;;485127;243;1155;-47
2021/09/22 05:34:46;;;;;;;;;;;22.50;57.30;;;;;;484480;246;1304;-47
2021/09/22 05:36:48;;;;;;;;;;;22.50;57.30;;;;;;490351;243;1152;-46
2021/09/22 05:38:49;;;;;;;;;;;22.60;57.20;;;;;;484902;243;1105;-47
2021/09/22 05:40:50;;;;;;;;;;;22.60;57.20;;;;;;484429;246;1127;-46
2021/09/22 05:42:52;;;;;;;;;;;22.60;57.10;;;;;;490584;243;1192;-46
2021/09/22 05:44:53;;;;;;;;;;;22.60;57.00;;;;;;484801;243;2191;-46
2021/09/22 05:46:55;;;;;;;;;;;22.60;57.00;;;;;;484347;246;1331;-46
2021/09/22 05:48:56;;;;;;;;;;;22.70;57.00;;;;;;490567;243;1084;-47
2021/09/22 05:50:58;;;;;;;;;;;22.70;56.90;;;;;;484869;243;1379;-46
2021/09/22 05:52:59;;;;;;;;;;;22.70;56.80;;;;;;484389;246;1154;-46
2021/09/22 05:55:00;;;;;;;;;;;22.70;56.80;;;;;;490245;243;1066;-46
2021/09/22 05:57:02;;;;;;;;;;;22.70;56.70;;;;;;484800;242;1338;-46
2021/09/22 05:59:03;;;;;;;;;;;22.80;56.80;;;;;;484379;246;1191;-46
2021/09/22 06:01:04;;;;;;;;;;;22.80;56.70;;;;;;490219;243;1296;-46
2021/09/22 06:03:06;;;;;;;;;;;22.80;56.70;;;;;;484687;243;1501;-47
2021/09/22 06:05:07;;;;;;;;;;;22.80;56.60;;;;;;484457;246;2121;-46
2021/09/22 06:07:09;;;;;;;;;;;22.80;56.60;;;;;;490131;243;1518;-47
2021/09/22 06:09:10;;;;;;;;;;;22.80;56.60;;;;;;484636;243;1141;-47
2021/09/22 06:11:11;;;;;;;;;;;22.80;56.50;;;;;;484244;246;1341;-47
2021/09/22 06:13:13;;;;;;;;;;;22.90;56.50;;;;;;490007;243;1263;-47
2021/09/22 06:15:14;;;;;;;;;;;22.90;56.50;;;;;;484659;243;1243;-47
2021/09/22 06:17:15;;;;;;;;;;;22.90;56.40;;;;;;483988;246;1170;-47
2021/09/22 06:19:17;;;;;;;;;;;22.90;56.40;;;;;;489984;243;1253;-47
2021/09/22 06:21:18;;;;;;;;;;;22.90;56.30;;;;;;484554;242;1225;-47
2021/09/22 06:23:20;;;;;;;;;;;22.90;56.30;;;;;;484242;246;1164;-47
2021/09/22 06:25:22;;;;;;;;;;;22.90;56.30;;;;;;490102;243;2209;-47
2021/09/22 06:27:22;;;;;;;;;;;22.90;56.30;;;;;;484430;243;1725;-47
2021/09/22 06:29:24;;;;;;;;;;;22.90;56.30;;;;;;484186;246;1118;-47
2021/09/22 06:31:25;;;;;;;;;;;23.00;56.30;;;;;;489985;243;1360;-47
2021/09/22 06:33:26;;;;;;;;;;;23.00;56.30;;;;;;484675;243;1238;-47
2021/09/22 06:35:27;;;;;;;;;;;23.00;56.20;;;;;;484295;246;1338;-47
2021/09/22 06:37:29;;;;;;;;;;;23.00;56.20;;;;;;489993;243;1199;-47
2021/09/22 06:39:30;;;;;;;;;;;23.00;56.10;;;;;;484574;243;1110;-47
2021/09/22 06:41:32;;;;;;;;;;;23.00;56.10;;;;;;484064;246;1343;-46
2021/09/22 06:43:33;;;;;;;;;;;23.00;56.10;;;;;;489791;243;2766;-47
2021/09/22 06:45:34;;;;;;;;;;;23.10;56.10;;;;;;484639;243;2179;-47
2021/09/22 06:47:35;;;;;;;;;;;23.00;56.00;;;;;;484153;246;1272;-47
2021/09/22 06:49:37;;;;;;;;;;;23.10;56.00;;;;;;490054;243;1182;-47
2021/09/22 06:51:38;;;;;;;;;;;23.10;56.00;;;;;;484457;243;1401;-46
2021/09/22 06:53:40;;;;;;;;;;;23.10;56.00;;;;;;484154;246;1079;-47
2021/09/22 06:55:41;;;;;;;;;;;23.10;56.00;;;;;;489751;243;2231;-47
2021/09/22 06:57:43;;;;;;;;;;;23.10;56.00;;;;;;484686;243;1283;-46
2021/09/22 06:59:44;;;;;;;;;;;23.10;56.00;;;;;;483954;246;1551;-46
2021/09/22 07:01:45;;;;;;;;;;;23.10;55.90;;;;;;489829;243;1334;-47
2021/09/22 07:03:46;;;;;;;;;;;23.10;55.90;;;;;;484420;243;1135;-47
2021/09/22 07:05:48;;;;;;;;;;;23.20;55.90;;;;;;483956;246;2186;-47
2021/09/22 07:07:49;;;;;;;;;;;23.20;55.90;;;;;;489797;243;1959;-47
2021/09/22 07:09:50;;;;;;;;;;;23.20;55.90;;;;;;484553;243;1157;-46
2021/09/22 07:11:52;;;;;;;;;;;23.20;55.90;;;;;;483969;246;1266;-47
2021/09/22 07:13:53;;;;;;;;;;;23.20;55.90;;;;;;489782;243;1238;-47
2021/09/22 07:15:56;;;;;;;;;;;23.20;55.90;;;;;;484358;243;1304;-47
2021/09/22 07:17:56;;;;;;;;;;;23.20;55.90;;;;;;484077;246;2239;-47
2021/09/22 07:19:57;;;;;;;;;;;23.20;55.90;;;;;;489698;243;1148;-47
2021/09/22 07:21:59;;;;;;;;;;;23.20;55.90;;;;;;484385;243;1384;-47
2021/09/22 07:24:01;;;;;;;;;;;23.20;55.80;;;;;;483894;246;2277;-47
2021/09/22 07:26:03;;;;;;;;;;;23.20;55.80;;;;;;489575;243;2192;-47
2021/09/22 07:28:03;;;;;;;;;;;23.20;55.80;;;;;;484530;243;2090;-47
2021/09/22 07:30:04;;;;;;;;;;;23.20;55.70;;;;;;483739;246;1185;-47
2021/09/22 07:32:05;;;;;;;;;;;23.20;55.80;;;;;;489808;243;1347;-47
2021/09/22 07:34:07;;;;;;;;;;;23.20;55.80;;;;;;484387;243;1147;-47
2021/09/22 07:36:10;;;;;;;;;;;23.20;55.80;;;;;;483899;246;1347;-47
2021/09/22 07:38:09;;;;;;;;;;;23.20;55.70;;;;;;489496;242;2174;-47
2021/09/22 07:40:11;;;;;;;;;;;23.20;55.70;;;;;;484254;243;1236;-47
2021/09/22 07:42:12;;;;;;;;;;;23.20;55.70;;;;;;483849;246;1264;-47
2021/09/22 07:44:13;;;;;;;;;;;23.30;55.70;;;;;;489790;243;1165;-46
2021/09/22 07:46:15;;;;;;;;;;;23.30;55.70;;;;;;484416;242;2179;-46
2021/09/22 07:48:16;;;;;;;;;;;23.30;55.70;;;;;;483858;241;1212;-47
2021/09/22 07:50:17;;;;;;;;;;;23.30;55.70;;;;;;489722;243;1123;-47
2021/09/22 07:52:19;;;;;;;;;;;23.30;55.70;;;;;;484347;243;1283;-46
2021/09/22 07:54:20;;;;;;;;;;;23.30;55.70;;;;;;483778;246;1137;-47
2021/09/22 07:56:21;;;;;;;;;;;23.30;55.70;;;;;;489457;243;1501;-47
2021/09/22 07:58:23;;;;;;;;;;;23.30;55.70;;;;;;484912;243;942;-47
2021/09/22 08:00:24;;;;;;;;;;;23.30;55.60;;;;;;484476;246;963;-47
2021/09/22 08:02:25;;;;;;;;;;;23.30;55.60;;;;;;489802;243;1184;-47
2021/09/22 08:04:27;;;;;;;;;;;23.40;55.60;;;;;;484225;243;1461;-47
2021/09/22 08:06:28;;;;;;;;;;;23.30;55.60;;;;;;483679;246;2191;-47
2021/09/22 08:08:29;;;;;;;;;;;23.40;55.60;;;;;;489544;243;1254;-47
2021/09/22 08:10:31;;;;;;;;;;;23.40;55.60;;;;;;484175;243;1189;-47
2021/09/22 08:12:32;;;;;;;;;;;23.30;55.50;;;;;;483734;246;1131;-47
2021/09/22 08:14:34;;;;;;;;;;;23.40;55.60;;;;;;489670;243;1184;-47
2021/09/22 08:16:35;;;;;;;;;;;23.40;55.60;;;;;;484206;243;1342;-47
2021/09/22 08:18:36;;;;;;;;;;;23.40;55.60;;;;;;483905;246;1123;-47
2021/09/22 08:20:37;;;;;;;;;;;23.40;55.50;;;;;;489742;243;1107;-47
2021/09/22 08:22:39;;;;;;;;;;;23.40;55.60;;;;;;484130;243;1181;-47
2021/09/22 08:24:40;;;;;;;;;;;23.40;55.60;;;;;;483625;246;1187;-47
2021/09/22 08:26:41;;;;;;;;;;;23.40;55.60;;;;;;489485;243;2192;-47
2021/09/22 08:28:43;;;;;;;;;;;23.40;55.60;;;;;;484138;243;1206;-47
2021/09/22 08:30:44;;;;;;;;;;;23.40;55.60;;;;;;483792;246;1148;-47
2021/09/22 08:32:46;;;;;;;;;;;23.40;55.50;;;;;;489113;243;1316;-47
2021/09/22 08:34:47;;;;;;;;;;;23.40;55.50;;;;;;484462;243;1046;-47
2021/09/22 08:36:48;;;;;;;;;;;23.40;55.50;;;;;;483628;246;1357;-47
2021/09/22 08:38:51;;;;;;;;;;;23.40;55.50;;;;;;489663;243;1096;-47
2021/09/22 08:40:51;;;;;;;;;;;23.40;55.50;;;;;;484360;243;1245;-47
2021/09/22 08:42:53;;;;;;;;;;;23.40;55.40;;;;;;483820;246;1153;-47
2021/09/22 08:44:56;;;;;;;;;;;23.40;55.50;;;;;;489815;243;1096;-47
2021/09/22 08:46:56;;;;;;;;;;;23.50;55.50;;;;;;484248;245;2168;-47
2021/09/22 08:48:57;;;;;;;;;;;23.40;55.40;;;;;;483717;246;1273;-47
2021/09/22 08:50:59;;;;;;;;;;;23.40;55.40;;;;;;489571;243;2410;-43
2021/09/22 08:53:00;;;;;;;;;;;23.50;55.50;;;;;;484515;243;1183;-47
2021/09/22 08:55:02;;;;;;;;;;;23.40;55.40;;;;;;483962;246;1413;-47
2021/09/22 08:57:05;;;;;;;;;;;23.50;55.40;;;;;;489669;243;1210;-47
2021/09/22 08:59:05;;;;;;;;;;;23.50;55.40;;;;;;484126;246;1682;-47
2021/09/22 09:01:06;;;;;;;;;;;23.50;55.40;;;;;;483742;246;1207;-47
2021/09/22 09:03:07;;;;;;;;;;;23.50;55.40;;;;;;489657;243;1235;-47
2021/09/22 09:05:09;;;;;;;;;;;23.50;55.30;;;;;;484096;243;1387;-47
2021/09/22 09:07:10;;;;;;;;;;;23.50;55.30;;;;;;482917;246;1271;-47
2021/09/22 09:09:11;;;;;;;;;;;23.60;55.20;;;;;;489635;243;1137;-47
2021/09/22 09:11:13;;;;;;;;;;;23.60;55.10;;;;;;484091;242;1230;-47
2021/09/22 09:13:14;;;;;;;;;;;23.60;55.10;;;;;;483622;246;1359;-46
2021/09/22 09:15:15;;;;;;;;;;;23.60;55.10;;;;;;489500;243;1188;-47
2021/09/22 09:17:20;;;;;;;;;;;23.60;55.10;;;;;;483927;243;1231;-44
2021/09/22 09:19:21;;;;;;;;;;;23.70;55.10;;;;;;483983;246;1525;-47
2021/09/22 09:21:22;;;;;;;;;;;23.70;55.00;;;;;;489570;243;1377;-47
2021/09/22 09:23:24;;;;;;;;;;;23.70;55.00;;;;;;484230;243;1150;-42
2021/09/22 09:25:25;;;;;;;;;;;23.70;54.90;;;;;;483660;246;2183;-47
2021/09/22 09:27:30;;;;;;;;;;;23.70;54.90;;;;;;488995;243;1323;-47
2021/09/22 09:29:28;;;;;;;;;;;23.70;54.80;;;;;;483960;245;1802;-47
2021/09/22 09:31:30;;;;;;;;;;;23.70;54.80;;;;;;483676;246;1328;-47
2021/09/22 09:33:31;;;;;;;;;;;23.80;54.90;;;;;;489402;243;1173;-47
2021/09/22 09:35:32;;;;;;;;;;;23.80;54.90;;;;;;484209;243;1191;-47
2021/09/22 09:37:34;;;;;;;;;;;23.80;54.90;;;;;;483637;246;1250;-47
2021/09/22 09:39:35;;;;;;;;;;;23.80;54.80;;;;;;489891;243;1212;-48
2021/09/22 09:41:36;;;;;;;;;;;23.80;54.70;;;;;;484098;243;1366;-47
2021/09/22 09:43:38;;;;;;;;;;;23.70;54.90;;;;;;483748;246;1081;-47
2021/09/22 09:45:39;;;;;;;;;;;23.70;55.10;;;;;;489608;243;2185;-47
2021/09/22 09:47:41;;;;;;;;;;;23.50;55.40;;;;;;484207;243;1285;-47
2021/09/22 09:49:43;;;;;;;;;;;23.40;55.90;;;;;;484228;246;1322;-46
2021/09/22 09:51:44;;;;;;;;;;;23.20;56.20;;;;;;490009;242;2177;-47
2021/09/22 09:53:45;;;;;;;;;;;23.10;56.50;;;;;;484340;243;1449;-47
2021/09/22 09:55:46;;;;;;;;;;;23.10;56.90;;;;;;483898;246;1336;-47
2021/09/22 09:57:48;;;;;;;;;;;23.00;56.90;;;;;;490247;243;1113;-46
2021/09/22 09:59:49;;;;;;;;;;;23.00;57.00;;;;;;484183;243;1180;-47
2021/09/22 10:01:50;;;;;;;;;;;22.90;57.20;;;;;;483668;246;1348;-47
2021/09/22 10:03:52;;;;;;;;;;;22.90;57.40;;;;;;489594;243;1299;-47
2021/09/22 10:05:53;;;;;;;;;;;22.90;57.40;;;;;;484190;243;2124;-47
2021/09/22 10:07:54;;;;;;;;;;;22.80;57.60;;;;;;483643;246;1227;-47
2021/09/22 10:09:56;;;;;;;;;;;22.80;57.60;;;;;;489623;243;1168;-47
2021/09/22 10:11:57;;;;;;;;;;;22.80;57.80;;;;;;484191;243;1215;-46
2021/09/22 10:13:59;;;;;;;;;;;22.70;57.90;;;;;;483857;246;1134;-47
2021/09/22 10:16:00;;;;;;;;;;;22.70;58.00;;;;;;489812;243;1318;-47
2021/09/22 10:18:01;;;;;;;;;;;22.60;58.10;;;;;;484305;243;1294;-47
2021/09/22 10:20:03;;;;;;;;;;;22.60;58.20;;;;;;483823;246;1318;-47
2021/09/22 10:22:04;;;;;;;;;;;22.50;58.20;;;;;;489658;243;1416;-47
2021/09/22 10:24:05;;;;;;;;;;;22.60;58.40;;;;;;484426;243;1194;-47
2021/09/22 10:26:08;;;;;;;;;;;22.50;58.40;;;;;;483210;246;2133;-47
2021/09/22 10:28:08;;;;;;;;;;;22.50;58.30;;;;;;489626;243;2045;-46
2021/09/22 10:30:11;;;;;;;;;;;22.50;58.40;;;;;;484352;242;1181;-46
2021/09/22 10:32:11;;;;;;;;;;;22.50;58.40;;;;;;482989;246;1985;-46
2021/09/22 10:34:12;;;;;;;;;;;22.50;58.40;;;;;;489540;243;1222;-46
2021/09/22 10:36:15;;;;;;;;;;;22.40;58.40;;;;;;484072;243;1143;-46
2021/09/22 10:38:15;;;;;;;;;;;22.40;58.60;;;;;;483689;242;2291;-46
2021/09/22 10:40:16;;;;;;;;;;;22.40;58.60;;;;;;489710;243;1115;-46
2021/09/22 10:42:17;;;;;;;;;;;22.40;58.60;;;;;;484222;243;1642;-46
2021/09/22 10:44:19;;;;;;;;;;;22.40;58.50;;;;;;483811;246;1070;-46
2021/09/22 10:46:20;;;;;;;;;;;22.40;58.60;;;;;;489649;243;2125;-46
2021/09/22 10:48:21;;;;;;;;;;;22.40;58.60;;;;;;485144;243;1234;-46
2021/09/22 10:50:23;;;;;;;;;;;22.30;58.60;;;;;;484222;246;1148;-46
2021/09/22 10:52:24;;;;;;;;;;;22.30;58.60;;;;;;490214;243;1202;-47
2021/09/22 10:54:27;;;;;;;;;;;22.30;58.60;;;;;;484470;243;1140;-47
2021/09/22 10:56:27;;;;;;;;;;;22.30;58.70;;;;;;483762;246;1969;-47
2021/09/22 10:58:28;;;;;;;;;;;22.30;58.70;;;;;;489492;243;1193;-47
2021/09/22 11:00:29;;;;;;;;;;;22.30;58.60;;;;;;484088;243;1374;-47
2021/09/22 11:02:30;;;;;;;;;;;22.30;58.60;;;;;;483878;246;1205;-46
2021/09/22 11:04:32;;;;;;;;;;;22.30;58.60;;;;;;490222;243;1184;-46
2021/09/22 11:06:33;;;;;;;;;;;22.30;58.60;;;;;;484043;245;2194;-46
2021/09/22 11:08:34;;;;;;;;;;;22.30;58.60;;;;;;483566;246;1364;-46
2021/09/22 11:10:36;;;;;;;;;;;22.20;58.70;;;;;;489440;243;1325;-46
2021/09/22 11:12:37;;;;;;;;;;;22.30;58.70;;;;;;483660;243;1324;-46
2021/09/22 11:14:39;;;;;;;;;;;22.20;58.70;;;;;;483322;246;1213;-46
2021/09/22 11:16:40;;;;;;;;;;;22.20;58.70;;;;;;489029;243;1221;-45
2021/09/22 11:18:42;;;;;;;;;;;22.20;58.80;;;;;;484262;243;1276;-45
2021/09/22 11:20:43;;;;;;;;;;;22.20;58.80;;;;;;483729;246;1354;-46
2021/09/22 11:22:44;;;;;;;;;;;22.20;58.90;;;;;;489539;243;1393;-46
2021/09/22 11:24:45;;;;;;;;;;;22.20;58.80;;;;;;484207;243;1143;-46
2021/09/22 11:26:47;;;;;;;;;;;22.20;58.80;;;;;;483550;246;2192;-46
2021/09/22 11:28:48;;;;;;;;;;;22.10;58.80;;;;;;489470;243;1288;-46
2021/09/22 11:30:49;;;;;;;;;;;22.20;58.80;;;;;;484027;243;1334;-46
2021/09/22 11:32:51;;;;;;;;;;;22.20;58.80;;;;;;483567;246;1327;-46
2021/09/22 11:34:52;;;;;;;;;;;22.20;58.70;;;;;;489450;243;1174;-46
2021/09/22 11:36:54;;;;;;;;;;;22.20;58.80;;;;;;484208;243;1295;-46
2021/09/22 11:38:55;;;;;;;;;;;22.20;58.90;;;;;;483862;246;1387;-46
2021/09/22 11:40:57;;;;;;;;;;;22.20;58.80;;;;;;489090;242;1361;-46
2021/09/22 11:42:58;;;;;;;;;;;22.20;58.70;;;;;;484757;243;1088;-46
2021/09/22 11:45:00;;;;;;;;;;;22.20;58.70;;;;;;483771;246;1207;-46
2021/09/22 11:47:01;;;;;;;;;;;22.20;58.70;;;;;;489769;243;2433;-46
2021/09/22 11:49:02;;;;;;;;;;;22.20;58.60;;;;;;484639;243;977;-46
2021/09/22 11:51:04;;;;;;;;;;;22.20;58.60;;;;;;483803;246;1149;-46
2021/09/22 11:53:05;;;;;;;;;;;22.10;58.70;;;;;;489696;243;1269;-46
2021/09/22 11:55:07;;;;;;;;;;;22.10;58.70;;;;;;484238;243;1086;-46
2021/09/22 11:57:10;;;;;;;;;;;22.10;58.90;;;;;;483991;246;1368;-46